sensor_id;sensor_type;location;lat;lon;timestamp;P1;durP1;ratioP1;P2;durP2;ratioP2
13309;SDS011;6723;48.256;16.402;2023-03-01T00:01:59;21.60;;;14.87;;
13309;SDS011;6723;48.256;16.402;2023-03-01T00:04:25;22.57;;;14.07;;
13309;SDS011;6723;48.256;16.402;2023-03-01T00:06:50;20.03;;;13.83;;
13309;SDS011;6723;48.256;16.402;2023-03-01T00:09:16;22.83;;;14.63;;
13309;SDS011;6723;48.256;16.402;2023-03-01T00:11:43;22.83;;;15.27;;
13309;SDS011;6723;48.256;16.402;2023-03-01T00:14:09;21.23;;;14.53;;
13309;SDS011;6723;48.256;16.402;2023-03-01T00:16:36;23.30;;;13.97;;
13309;SDS011;6723;48.256;16.402;2023-03-01T00:19:04;23.20;;;14.83;;
13309;SDS011;6723;48.256;16.402;2023-03-01T00:21:32;25.33;;;15.70;;
13309;SDS011;6723;48.256;16.402;2023-03-01T00:23:59;25.07;;;15.23;;
13309;SDS011;6723;48.256;16.402;2023-03-01T00:26:25;22.50;;;14.97;;
13309;SDS011;6723;48.256;16.402;2023-03-01T00:28:51;24.47;;;15.47;;
13309;SDS011;6723;48.256;16.402;2023-03-01T00:31:18;23.03;;;14.50;;
13309;SDS011;6723;48.256;16.402;2023-03-01T00:33:46;24.33;;;15.67;;
13309;SDS011;6723;48.256;16.402;2023-03-01T00:36:13;24.93;;;15.57;;
13309;SDS011;6723;48.256;16.402;2023-03-01T00:38:42;25.67;;;15.40;;
13309;SDS011;6723;48.256;16.402;2023-03-01T00:41:11;24.57;;;15.17;;
13309;SDS011;6723;48.256;16.402;2023-03-01T00:43:39;23.30;;;14.77;;
13309;SDS011;6723;48.256;16.402;2023-03-01T00:46:06;25.40;;;15.87;;
13309;SDS011;6723;48.256;16.402;2023-03-01T00:48:35;23.47;;;15.60;;
13309;SDS011;6723;48.256;16.402;2023-03-01T00:51:08;21.83;;;14.33;;
13309;SDS011;6723;48.256;16.402;2023-03-01T00:53:36;24.33;;;15.27;;
13309;SDS011;6723;48.256;16.402;2023-03-01T00:56:03;22.83;;;15.50;;
13309;SDS011;6723;48.256;16.402;2023-03-01T00:58:31;21.37;;;14.53;;
13309;SDS011;6723;48.256;16.402;2023-03-01T01:00:57;23.20;;;15.30;;
13309;SDS011;6723;48.256;16.402;2023-03-01T01:03:24;22.53;;;15.60;;
13309;SDS011;6723;48.256;16.402;2023-03-01T01:05:54;21.83;;;14.90;;
13309;SDS011;6723;48.256;16.402;2023-03-01T01:08:20;23.03;;;14.80;;
13309;SDS011;6723;48.256;16.402;2023-03-01T01:10:46;26.57;;;15.40;;
13309;SDS011;6723;48.256;16.402;2023-03-01T01:13:12;24.37;;;15.13;;
13309;SDS011;6723;48.256;16.402;2023-03-01T01:15:39;26.53;;;15.43;;
13309;SDS011;6723;48.256;16.402;2023-03-01T01:18:05;25.17;;;14.90;;
13309;SDS011;6723;48.256;16.402;2023-03-01T01:20:31;25.40;;;14.77;;
13309;SDS011;6723;48.256;16.402;2023-03-01T01:22:57;22.87;;;15.30;;
13309;SDS011;6723;48.256;16.402;2023-03-01T01:25:23;22.07;;;14.43;;
13309;SDS011;6723;48.256;16.402;2023-03-01T01:27:51;23.17;;;14.40;;
13309;SDS011;6723;48.256;16.402;2023-03-01T01:30:17;25.47;;;15.47;;
13309;SDS011;6723;48.256;16.402;2023-03-01T01:32:43;23.27;;;15.17;;
13309;SDS011;6723;48.256;16.402;2023-03-01T01:35:09;22.37;;;15.27;;
13309;SDS011;6723;48.256;16.402;2023-03-01T01:37:34;25.47;;;15.27;;
13309;SDS011;6723;48.256;16.402;2023-03-01T01:40:00;27.10;;;16.53;;
13309;SDS011;6723;48.256;16.402;2023-03-01T01:42:29;23.63;;;14.73;;
13309;SDS011;6723;48.256;16.402;2023-03-01T01:47:52;30.70;;;15.10;;
13309;SDS011;6723;48.256;16.402;2023-03-01T01:50:21;28.17;;;15.33;;
13309;SDS011;6723;48.256;16.402;2023-03-01T01:52:48;25.73;;;15.57;;
13309;SDS011;6723;48.256;16.402;2023-03-01T01:55:17;25.20;;;15.43;;
13309;SDS011;6723;48.256;16.402;2023-03-01T01:57:51;24.00;;;15.30;;
13309;SDS011;6723;48.256;16.402;2023-03-01T02:00:24;22.73;;;15.57;;
13309;SDS011;6723;48.256;16.402;2023-03-01T02:03:11;23.10;;;14.90;;
13309;SDS011;6723;48.256;16.402;2023-03-01T02:05:51;26.13;;;15.80;;
13309;SDS011;6723;48.256;16.402;2023-03-01T02:08:27;24.10;;;15.60;;
13309;SDS011;6723;48.256;16.402;2023-03-01T02:10:55;22.93;;;14.90;;
13309;SDS011;6723;48.256;16.402;2023-03-01T02:13:25;23.37;;;15.97;;
13309;SDS011;6723;48.256;16.402;2023-03-01T02:15:51;25.03;;;14.97;;
13309;SDS011;6723;48.256;16.402;2023-03-01T02:18:18;23.83;;;16.17;;
13309;SDS011;6723;48.256;16.402;2023-03-01T02:20:59;27.87;;;16.83;;
13309;SDS011;6723;48.256;16.402;2023-03-01T02:23:38;25.10;;;16.47;;
13309;SDS011;6723;48.256;16.402;2023-03-01T02:28:38;26.30;;;16.33;;
13309;SDS011;6723;48.256;16.402;2023-03-01T02:31:08;25.13;;;16.73;;
13309;SDS011;6723;48.256;16.402;2023-03-01T02:33:54;27.17;;;17.43;;
13309;SDS011;6723;48.256;16.402;2023-03-01T02:36:23;26.50;;;17.23;;
13309;SDS011;6723;48.256;16.402;2023-03-01T02:38:52;26.17;;;17.07;;
13309;SDS011;6723;48.256;16.402;2023-03-01T02:41:21;25.57;;;17.03;;
13309;SDS011;6723;48.256;16.402;2023-03-01T02:43:48;27.67;;;18.07;;
13309;SDS011;6723;48.256;16.402;2023-03-01T02:46:16;30.50;;;18.10;;
13309;SDS011;6723;48.256;16.402;2023-03-01T02:48:54;26.87;;;18.23;;
13309;SDS011;6723;48.256;16.402;2023-03-01T02:54:36;28.80;;;18.30;;
13309;SDS011;6723;48.256;16.402;2023-03-01T02:57:05;27.03;;;18.97;;
13309;SDS011;6723;48.256;16.402;2023-03-01T02:59:32;30.07;;;18.70;;
13309;SDS011;6723;48.256;16.402;2023-03-01T03:02:07;27.70;;;17.60;;
13309;SDS011;6723;48.256;16.402;2023-03-01T03:04:45;29.20;;;18.33;;
13309;SDS011;6723;48.256;16.402;2023-03-01T03:07:11;27.83;;;18.27;;
13309;SDS011;6723;48.256;16.402;2023-03-01T03:09:37;29.13;;;18.70;;
13309;SDS011;6723;48.256;16.402;2023-03-01T03:12:03;30.73;;;19.10;;
13309;SDS011;6723;48.256;16.402;2023-03-01T03:14:29;28.23;;;18.97;;
13309;SDS011;6723;48.256;16.402;2023-03-01T03:16:55;30.00;;;18.70;;
13309;SDS011;6723;48.256;16.402;2023-03-01T03:19:21;29.37;;;18.57;;
13309;SDS011;6723;48.256;16.402;2023-03-01T03:21:46;32.33;;;18.77;;
13309;SDS011;6723;48.256;16.402;2023-03-01T03:24:12;30.90;;;18.90;;
13309;SDS011;6723;48.256;16.402;2023-03-01T03:26:38;27.53;;;19.17;;
13309;SDS011;6723;48.256;16.402;2023-03-01T03:29:04;30.90;;;19.00;;
13309;SDS011;6723;48.256;16.402;2023-03-01T03:31:30;29.10;;;18.60;;
13309;SDS011;6723;48.256;16.402;2023-03-01T03:33:56;29.90;;;19.57;;
13309;SDS011;6723;48.256;16.402;2023-03-01T03:36:23;29.73;;;19.03;;
13309;SDS011;6723;48.256;16.402;2023-03-01T03:38:49;30.00;;;18.87;;
13309;SDS011;6723;48.256;16.402;2023-03-01T03:41:16;29.40;;;18.37;;
13309;SDS011;6723;48.256;16.402;2023-03-01T03:43:43;30.87;;;18.73;;
13309;SDS011;6723;48.256;16.402;2023-03-01T03:46:10;29.00;;;18.87;;
13309;SDS011;6723;48.256;16.402;2023-03-01T03:48:38;27.63;;;18.83;;
13309;SDS011;6723;48.256;16.402;2023-03-01T03:51:05;28.87;;;17.90;;
13309;SDS011;6723;48.256;16.402;2023-03-01T03:53:35;27.93;;;18.20;;
13309;SDS011;6723;48.256;16.402;2023-03-01T03:56:00;28.80;;;18.67;;
13309;SDS011;6723;48.256;16.402;2023-03-01T03:58:26;30.67;;;19.83;;
13309;SDS011;6723;48.256;16.402;2023-03-01T04:00:53;28.17;;;17.87;;
13309;SDS011;6723;48.256;16.402;2023-03-01T04:03:21;28.93;;;18.93;;
13309;SDS011;6723;48.256;16.402;2023-03-01T04:05:48;28.67;;;18.33;;
13309;SDS011;6723;48.256;16.402;2023-03-01T04:08:18;28.90;;;18.80;;
13309;SDS011;6723;48.256;16.402;2023-03-01T04:10:47;26.30;;;18.20;;
13309;SDS011;6723;48.256;16.402;2023-03-01T04:13:21;28.97;;;18.43;;
13309;SDS011;6723;48.256;16.402;2023-03-01T04:15:48;26.03;;;17.83;;
13309;SDS011;6723;48.256;16.402;2023-03-01T04:18:16;30.13;;;18.73;;
13309;SDS011;6723;48.256;16.402;2023-03-01T04:20:44;27.33;;;17.40;;
13309;SDS011;6723;48.256;16.402;2023-03-01T04:23:15;34.83;;;20.27;;
13309;SDS011;6723;48.256;16.402;2023-03-01T04:25:54;31.97;;;20.07;;
13309;SDS011;6723;48.256;16.402;2023-03-01T04:28:23;29.23;;;20.10;;
13309;SDS011;6723;48.256;16.402;2023-03-01T04:30:52;33.13;;;21.77;;
13309;SDS011;6723;48.256;16.402;2023-03-01T04:33:19;32.73;;;19.53;;
13309;SDS011;6723;48.256;16.402;2023-03-01T04:35:45;28.53;;;18.27;;
13309;SDS011;6723;48.256;16.402;2023-03-01T04:38:15;27.23;;;17.97;;
13309;SDS011;6723;48.256;16.402;2023-03-01T04:40:45;28.90;;;18.53;;
13309;SDS011;6723;48.256;16.402;2023-03-01T04:43:11;29.37;;;17.93;;
13309;SDS011;6723;48.256;16.402;2023-03-01T04:45:41;32.93;;;19.30;;
13309;SDS011;6723;48.256;16.402;2023-03-01T04:48:08;29.53;;;19.00;;
13309;SDS011;6723;48.256;16.402;2023-03-01T04:50:34;29.33;;;17.97;;
13309;SDS011;6723;48.256;16.402;2023-03-01T04:53:00;27.43;;;18.40;;
13309;SDS011;6723;48.256;16.402;2023-03-01T04:55:27;28.60;;;18.97;;
13309;SDS011;6723;48.256;16.402;2023-03-01T04:57:54;30.50;;;18.87;;
13309;SDS011;6723;48.256;16.402;2023-03-01T05:00:21;30.13;;;19.20;;
13309;SDS011;6723;48.256;16.402;2023-03-01T05:02:55;32.23;;;19.23;;
13309;SDS011;6723;48.256;16.402;2023-03-01T05:07:55;30.13;;;19.07;;
13309;SDS011;6723;48.256;16.402;2023-03-01T05:10:22;30.83;;;19.97;;
13309;SDS011;6723;48.256;16.402;2023-03-01T05:12:49;28.20;;;17.90;;
13309;SDS011;6723;48.256;16.402;2023-03-01T05:15:15;31.50;;;19.67;;
13309;SDS011;6723;48.256;16.402;2023-03-01T05:17:40;30.07;;;18.93;;
13309;SDS011;6723;48.256;16.402;2023-03-01T05:20:07;31.17;;;19.63;;
13309;SDS011;6723;48.256;16.402;2023-03-01T05:22:34;30.47;;;19.80;;
13309;SDS011;6723;48.256;16.402;2023-03-01T05:25:00;30.20;;;19.27;;
13309;SDS011;6723;48.256;16.402;2023-03-01T05:27:27;30.03;;;19.23;;
13309;SDS011;6723;48.256;16.402;2023-03-01T05:29:52;30.20;;;18.80;;
13309;SDS011;6723;48.256;16.402;2023-03-01T05:32:18;28.33;;;18.20;;
13309;SDS011;6723;48.256;16.402;2023-03-01T05:34:44;29.47;;;19.13;;
13309;SDS011;6723;48.256;16.402;2023-03-01T05:37:11;28.00;;;19.10;;
13309;SDS011;6723;48.256;16.402;2023-03-01T05:39:39;28.13;;;18.47;;
13309;SDS011;6723;48.256;16.402;2023-03-01T05:42:09;29.37;;;18.70;;
13309;SDS011;6723;48.256;16.402;2023-03-01T05:44:36;28.67;;;19.07;;
13309;SDS011;6723;48.256;16.402;2023-03-01T05:47:02;28.17;;;18.30;;
13309;SDS011;6723;48.256;16.402;2023-03-01T05:49:27;30.90;;;19.20;;
13309;SDS011;6723;48.256;16.402;2023-03-01T05:51:53;27.87;;;19.23;;
13309;SDS011;6723;48.256;16.402;2023-03-01T05:54:20;28.90;;;19.47;;
13309;SDS011;6723;48.256;16.402;2023-03-01T05:56:47;29.60;;;19.03;;
13309;SDS011;6723;48.256;16.402;2023-03-01T05:59:13;31.23;;;18.97;;
13309;SDS011;6723;48.256;16.402;2023-03-01T06:01:41;28.37;;;18.37;;
13309;SDS011;6723;48.256;16.402;2023-03-01T06:04:08;28.60;;;18.87;;
13309;SDS011;6723;48.256;16.402;2023-03-01T06:06:34;28.93;;;18.63;;
13309;SDS011;6723;48.256;16.402;2023-03-01T06:09:03;31.10;;;19.17;;
13309;SDS011;6723;48.256;16.402;2023-03-01T06:11:34;34.57;;;19.07;;
13309;SDS011;6723;48.256;16.402;2023-03-01T06:14:01;31.13;;;18.90;;
13309;SDS011;6723;48.256;16.402;2023-03-01T06:16:27;31.10;;;19.10;;
13309;SDS011;6723;48.256;16.402;2023-03-01T06:18:53;30.70;;;18.93;;
13309;SDS011;6723;48.256;16.402;2023-03-01T06:21:18;28.77;;;18.87;;
13309;SDS011;6723;48.256;16.402;2023-03-01T06:23:44;27.23;;;17.83;;
13309;SDS011;6723;48.256;16.402;2023-03-01T06:26:10;31.70;;;19.37;;
13309;SDS011;6723;48.256;16.402;2023-03-01T06:28:36;29.57;;;18.97;;
13309;SDS011;6723;48.256;16.402;2023-03-01T06:31:02;33.93;;;19.53;;
13309;SDS011;6723;48.256;16.402;2023-03-01T06:33:28;26.03;;;18.03;;
13309;SDS011;6723;48.256;16.402;2023-03-01T06:35:54;28.70;;;18.10;;
13309;SDS011;6723;48.256;16.402;2023-03-01T06:38:21;29.67;;;18.23;;
13309;SDS011;6723;48.256;16.402;2023-03-01T06:40:55;28.83;;;18.47;;
13309;SDS011;6723;48.256;16.402;2023-03-01T06:43:22;30.73;;;18.70;;
13309;SDS011;6723;48.256;16.402;2023-03-01T06:45:48;28.20;;;18.27;;
13309;SDS011;6723;48.256;16.402;2023-03-01T06:48:14;30.90;;;18.27;;
13309;SDS011;6723;48.256;16.402;2023-03-01T06:50:40;28.40;;;18.77;;
13309;SDS011;6723;48.256;16.402;2023-03-01T06:53:06;32.80;;;18.60;;
13309;SDS011;6723;48.256;16.402;2023-03-01T06:55:32;31.40;;;19.67;;
13309;SDS011;6723;48.256;16.402;2023-03-01T06:57:58;32.10;;;18.77;;
13309;SDS011;6723;48.256;16.402;2023-03-01T07:00:26;32.50;;;19.47;;
13309;SDS011;6723;48.256;16.402;2023-03-01T07:02:52;29.83;;;18.90;;
13309;SDS011;6723;48.256;16.402;2023-03-01T07:05:19;31.73;;;19.57;;
13309;SDS011;6723;48.256;16.402;2023-03-01T07:07:45;29.27;;;18.73;;
13309;SDS011;6723;48.256;16.402;2023-03-01T07:10:11;27.37;;;18.03;;
13309;SDS011;6723;48.256;16.402;2023-03-01T07:12:37;30.43;;;19.93;;
13309;SDS011;6723;48.256;16.402;2023-03-01T07:15:03;30.27;;;19.53;;
13309;SDS011;6723;48.256;16.402;2023-03-01T07:17:29;30.40;;;19.20;;
13309;SDS011;6723;48.256;16.402;2023-03-01T07:19:56;30.43;;;19.87;;
13309;SDS011;6723;48.256;16.402;2023-03-01T07:22:21;29.30;;;20.20;;
13309;SDS011;6723;48.256;16.402;2023-03-01T07:24:47;32.23;;;20.40;;
13309;SDS011;6723;48.256;16.402;2023-03-01T07:27:13;31.87;;;19.90;;
13309;SDS011;6723;48.256;16.402;2023-03-01T07:29:39;29.83;;;19.70;;
13309;SDS011;6723;48.256;16.402;2023-03-01T07:32:05;30.27;;;20.60;;
13309;SDS011;6723;48.256;16.402;2023-03-01T07:34:31;32.37;;;19.77;;
13309;SDS011;6723;48.256;16.402;2023-03-01T07:36:57;29.83;;;19.80;;
13309;SDS011;6723;48.256;16.402;2023-03-01T07:39:23;29.70;;;19.67;;
13309;SDS011;6723;48.256;16.402;2023-03-01T07:41:49;31.27;;;19.47;;
13309;SDS011;6723;48.256;16.402;2023-03-01T07:44:15;28.97;;;19.30;;
13309;SDS011;6723;48.256;16.402;2023-03-01T07:46:42;32.30;;;20.30;;
13309;SDS011;6723;48.256;16.402;2023-03-01T07:49:09;29.20;;;20.17;;
13309;SDS011;6723;48.256;16.402;2023-03-01T07:51:35;27.87;;;19.60;;
13309;SDS011;6723;48.256;16.402;2023-03-01T07:54:01;36.27;;;19.93;;
13309;SDS011;6723;48.256;16.402;2023-03-01T07:56:26;31.43;;;20.37;;
13309;SDS011;6723;48.256;16.402;2023-03-01T07:58:52;31.13;;;20.53;;
13309;SDS011;6723;48.256;16.402;2023-03-01T08:01:19;28.90;;;20.13;;
13309;SDS011;6723;48.256;16.402;2023-03-01T08:03:46;31.23;;;20.30;;
13309;SDS011;6723;48.256;16.402;2023-03-01T08:06:13;32.37;;;20.03;;
13309;SDS011;6723;48.256;16.402;2023-03-01T08:08:40;30.50;;;20.63;;
13309;SDS011;6723;48.256;16.402;2023-03-01T08:11:07;32.93;;;21.23;;
13309;SDS011;6723;48.256;16.402;2023-03-01T08:13:36;38.07;;;21.30;;
13309;SDS011;6723;48.256;16.402;2023-03-01T08:16:07;36.03;;;20.67;;
13309;SDS011;6723;48.256;16.402;2023-03-01T08:18:35;34.67;;;21.80;;
13309;SDS011;6723;48.256;16.402;2023-03-01T08:21:02;31.13;;;20.50;;
13309;SDS011;6723;48.256;16.402;2023-03-01T08:23:32;31.77;;;20.37;;
13309;SDS011;6723;48.256;16.402;2023-03-01T08:26:15;31.10;;;20.43;;
13309;SDS011;6723;48.256;16.402;2023-03-01T08:28:44;31.13;;;20.97;;
13309;SDS011;6723;48.256;16.402;2023-03-01T08:31:24;31.97;;;22.57;;
13309;SDS011;6723;48.256;16.402;2023-03-01T08:33:55;28.53;;;20.40;;
13309;SDS011;6723;48.256;16.402;2023-03-01T08:36:25;30.77;;;21.10;;
13309;SDS011;6723;48.256;16.402;2023-03-01T08:38:52;29.47;;;20.77;;
13309;SDS011;6723;48.256;16.402;2023-03-01T08:41:19;30.93;;;20.70;;
13309;SDS011;6723;48.256;16.402;2023-03-01T08:43:50;28.30;;;19.70;;
13309;SDS011;6723;48.256;16.402;2023-03-01T08:46:18;31.30;;;20.10;;
13309;SDS011;6723;48.256;16.402;2023-03-01T08:48:43;31.00;;;20.83;;
13309;SDS011;6723;48.256;16.402;2023-03-01T08:51:13;29.57;;;20.50;;
13309;SDS011;6723;48.256;16.402;2023-03-01T08:53:41;30.80;;;20.43;;
13309;SDS011;6723;48.256;16.402;2023-03-01T08:56:07;31.00;;;20.57;;
13309;SDS011;6723;48.256;16.402;2023-03-01T08:58:34;31.90;;;21.23;;
13309;SDS011;6723;48.256;16.402;2023-03-01T09:01:01;31.30;;;21.00;;
13309;SDS011;6723;48.256;16.402;2023-03-01T09:03:33;31.17;;;21.23;;
13309;SDS011;6723;48.256;16.402;2023-03-01T09:06:00;32.50;;;21.90;;
13309;SDS011;6723;48.256;16.402;2023-03-01T09:08:26;26.27;;;20.00;;
13309;SDS011;6723;48.256;16.402;2023-03-01T09:10:53;30.47;;;20.97;;
13309;SDS011;6723;48.256;16.402;2023-03-01T09:13:19;30.27;;;20.70;;
13309;SDS011;6723;48.256;16.402;2023-03-01T09:15:44;31.40;;;21.90;;
13309;SDS011;6723;48.256;16.402;2023-03-01T09:18:10;29.90;;;22.07;;
13309;SDS011;6723;48.256;16.402;2023-03-01T09:20:36;32.00;;;21.07;;
13309;SDS011;6723;48.256;16.402;2023-03-01T09:23:02;29.17;;;20.93;;
13309;SDS011;6723;48.256;16.402;2023-03-01T09:25:27;29.10;;;19.67;;
13309;SDS011;6723;48.256;16.402;2023-03-01T09:27:53;28.37;;;20.50;;
13309;SDS011;6723;48.256;16.402;2023-03-01T09:30:20;28.57;;;21.60;;
13309;SDS011;6723;48.256;16.402;2023-03-01T09:32:47;27.07;;;20.73;;
13309;SDS011;6723;48.256;16.402;2023-03-01T09:35:13;30.97;;;21.40;;
13309;SDS011;6723;48.256;16.402;2023-03-01T09:37:39;29.57;;;21.37;;
13309;SDS011;6723;48.256;16.402;2023-03-01T09:40:15;28.23;;;21.07;;
13309;SDS011;6723;48.256;16.402;2023-03-01T09:43:00;25.93;;;19.83;;
13309;SDS011;6723;48.256;16.402;2023-03-01T09:45:39;26.57;;;19.77;;
13309;SDS011;6723;48.256;16.402;2023-03-01T09:48:13;27.20;;;18.77;;
13309;SDS011;6723;48.256;16.402;2023-03-01T09:50:43;27.70;;;19.50;;
13309;SDS011;6723;48.256;16.402;2023-03-01T09:53:18;29.43;;;21.07;;
13309;SDS011;6723;48.256;16.402;2023-03-01T09:56:12;27.03;;;20.40;;
13309;SDS011;6723;48.256;16.402;2023-03-01T10:09:26;26.53;;;19.47;;
13309;SDS011;6723;48.256;16.402;2023-03-01T10:11:57;25.23;;;18.20;;
13309;SDS011;6723;48.256;16.402;2023-03-01T10:14:33;27.63;;;18.93;;
13309;SDS011;6723;48.256;16.402;2023-03-01T10:19:45;27.53;;;20.37;;
13309;SDS011;6723;48.256;16.402;2023-03-01T10:22:24;29.80;;;21.00;;
13309;SDS011;6723;48.256;16.402;2023-03-01T10:24:54;27.33;;;19.40;;
13309;SDS011;6723;48.256;16.402;2023-03-01T10:27:24;29.07;;;19.63;;
13309;SDS011;6723;48.256;16.402;2023-03-01T10:30:12;26.80;;;18.27;;
13309;SDS011;6723;48.256;16.402;2023-03-01T10:32:45;26.67;;;18.60;;
13309;SDS011;6723;48.256;16.402;2023-03-01T10:38:07;26.77;;;18.97;;
13309;SDS011;6723;48.256;16.402;2023-03-01T10:40:36;25.57;;;19.07;;
13309;SDS011;6723;48.256;16.402;2023-03-01T10:43:48;28.00;;;19.17;;
13309;SDS011;6723;48.256;16.402;2023-03-01T10:46:23;25.23;;;18.43;;
13309;SDS011;6723;48.256;16.402;2023-03-01T10:51:47;26.20;;;19.77;;
13309;SDS011;6723;48.256;16.402;2023-03-01T10:54:36;27.33;;;20.47;;
13309;SDS011;6723;48.256;16.402;2023-03-01T10:57:02;24.73;;;20.20;;
13309;SDS011;6723;48.256;16.402;2023-03-01T10:59:34;24.77;;;20.60;;
13309;SDS011;6723;48.256;16.402;2023-03-01T11:05:00;21.40;;;18.23;;
13309;SDS011;6723;48.256;16.402;2023-03-01T11:07:27;22.93;;;19.10;;
13309;SDS011;6723;48.256;16.402;2023-03-01T11:09:54;21.57;;;18.30;;
13309;SDS011;6723;48.256;16.402;2023-03-01T11:12:20;25.77;;;19.40;;
13309;SDS011;6723;48.256;16.402;2023-03-01T11:14:55;26.43;;;19.13;;
13309;SDS011;6723;48.256;16.402;2023-03-01T11:17:31;27.00;;;19.00;;
13309;SDS011;6723;48.256;16.402;2023-03-01T11:22:45;23.63;;;18.63;;
13309;SDS011;6723;48.256;16.402;2023-03-01T11:25:14;20.83;;;18.63;;
13309;SDS011;6723;48.256;16.402;2023-03-01T11:27:43;26.13;;;20.90;;
13309;SDS011;6723;48.256;16.402;2023-03-01T11:30:21;24.50;;;20.33;;
13309;SDS011;6723;48.256;16.402;2023-03-01T11:33:03;22.17;;;17.63;;
13309;SDS011;6723;48.256;16.402;2023-03-01T11:38:38;16.77;;;14.83;;
13309;SDS011;6723;48.256;16.402;2023-03-01T11:41:17;16.50;;;14.77;;
13309;SDS011;6723;48.256;16.402;2023-03-01T12:03:23;17.33;;;14.47;;
13309;SDS011;6723;48.256;16.402;2023-03-01T12:09:48;15.67;;;13.47;;
13309;SDS011;6723;48.256;16.402;2023-03-01T12:15:17;18.77;;;14.37;;
13309;SDS011;6723;48.256;16.402;2023-03-01T12:21:11;15.27;;;12.90;;
13309;SDS011;6723;48.256;16.402;2023-03-01T12:43:10;18.23;;;14.33;;
13309;SDS011;6723;48.256;16.402;2023-03-01T12:46:10;16.67;;;13.40;;
13309;SDS011;6723;48.256;16.402;2023-03-01T12:51:19;16.77;;;13.43;;
13309;SDS011;6723;48.256;16.402;2023-03-01T12:53:50;16.23;;;13.37;;
13309;SDS011;6723;48.256;16.402;2023-03-01T12:56:21;20.93;;;14.27;;
13309;SDS011;6723;48.256;16.402;2023-03-01T13:09:30;17.63;;;13.33;;
13309;SDS011;6723;48.256;16.402;2023-03-01T13:12:03;18.70;;;13.50;;
13309;SDS011;6723;48.256;16.402;2023-03-01T13:16:57;17.97;;;14.93;;
13309;SDS011;6723;48.256;16.402;2023-03-01T13:19:27;20.30;;;14.90;;
13309;SDS011;6723;48.256;16.402;2023-03-01T13:21:57;19.47;;;14.90;;
13309;SDS011;6723;48.256;16.402;2023-03-01T13:24:35;17.70;;;14.53;;
13309;SDS011;6723;48.256;16.402;2023-03-01T13:29:43;20.13;;;14.77;;
13309;SDS011;6723;48.256;16.402;2023-03-01T13:32:26;18.93;;;14.93;;
13309;SDS011;6723;48.256;16.402;2023-03-01T13:34:55;19.73;;;15.30;;
13309;SDS011;6723;48.256;16.402;2023-03-01T13:37:27;19.20;;;15.47;;
13309;SDS011;6723;48.256;16.402;2023-03-01T13:39:58;22.20;;;15.83;;
13309;SDS011;6723;48.256;16.402;2023-03-01T13:42:40;18.53;;;15.10;;
13309;SDS011;6723;48.256;16.402;2023-03-01T13:45:19;20.93;;;15.30;;
13309;SDS011;6723;48.256;16.402;2023-03-01T13:48:32;19.10;;;15.00;;
13309;SDS011;6723;48.256;16.402;2023-03-01T13:51:02;20.97;;;15.10;;
13309;SDS011;6723;48.256;16.402;2023-03-01T13:53:37;19.03;;;15.10;;
13309;SDS011;6723;48.256;16.402;2023-03-01T13:56:09;21.03;;;16.10;;
13309;SDS011;6723;48.256;16.402;2023-03-01T13:58:49;19.37;;;14.73;;
13309;SDS011;6723;48.256;16.402;2023-03-01T14:01:22;19.13;;;15.07;;
13309;SDS011;6723;48.256;16.402;2023-03-01T14:03:54;21.33;;;15.80;;
13309;SDS011;6723;48.256;16.402;2023-03-01T14:06:22;18.77;;;15.53;;
13309;SDS011;6723;48.256;16.402;2023-03-01T14:09:15;22.83;;;16.73;;
13309;SDS011;6723;48.256;16.402;2023-03-01T14:11:57;23.50;;;16.77;;
13309;SDS011;6723;48.256;16.402;2023-03-01T14:20:31;20.50;;;15.70;;
13309;SDS011;6723;48.256;16.402;2023-03-01T14:23:07;22.97;;;17.93;;
13309;SDS011;6723;48.256;16.402;2023-03-01T14:25:45;20.17;;;16.23;;
13309;SDS011;6723;48.256;16.402;2023-03-01T14:28:21;27.67;;;17.53;;
13309;SDS011;6723;48.256;16.402;2023-03-01T14:30:52;20.83;;;16.30;;
13309;SDS011;6723;48.256;16.402;2023-03-01T14:36:13;29.50;;;16.73;;
13309;SDS011;6723;48.256;16.402;2023-03-01T14:43:31;22.97;;;16.67;;
13309;SDS011;6723;48.256;16.402;2023-03-01T14:45:58;22.23;;;16.73;;
13309;SDS011;6723;48.256;16.402;2023-03-01T14:48:24;21.17;;;15.67;;
13309;SDS011;6723;48.256;16.402;2023-03-01T14:50:53;22.87;;;16.03;;
13309;SDS011;6723;48.256;16.402;2023-03-01T14:53:26;22.50;;;15.80;;
13309;SDS011;6723;48.256;16.402;2023-03-01T14:55:54;22.33;;;16.73;;
13309;SDS011;6723;48.256;16.402;2023-03-01T14:58:25;20.17;;;15.13;;
13309;SDS011;6723;48.256;16.402;2023-03-01T15:00:55;24.47;;;16.20;;
13309;SDS011;6723;48.256;16.402;2023-03-01T15:03:26;21.60;;;15.10;;
13309;SDS011;6723;48.256;16.402;2023-03-01T15:05:56;22.23;;;15.53;;
13309;SDS011;6723;48.256;16.402;2023-03-01T15:08:24;20.50;;;15.33;;
13309;SDS011;6723;48.256;16.402;2023-03-01T15:11:05;23.50;;;15.13;;
13309;SDS011;6723;48.256;16.402;2023-03-01T15:13:45;21.07;;;15.60;;
13309;SDS011;6723;48.256;16.402;2023-03-01T15:16:12;23.47;;;15.80;;
13309;SDS011;6723;48.256;16.402;2023-03-01T15:18:47;21.50;;;15.27;;
13309;SDS011;6723;48.256;16.402;2023-03-01T15:23:49;23.07;;;14.97;;
13309;SDS011;6723;48.256;16.402;2023-03-01T15:26:49;19.83;;;14.97;;
13309;SDS011;6723;48.256;16.402;2023-03-01T15:29:19;20.97;;;14.77;;
13309;SDS011;6723;48.256;16.402;2023-03-01T15:34:37;21.23;;;14.40;;
13309;SDS011;6723;48.256;16.402;2023-03-01T15:37:35;20.97;;;14.60;;
13309;SDS011;6723;48.256;16.402;2023-03-01T15:42:57;24.37;;;13.97;;
13309;SDS011;6723;48.256;16.402;2023-03-01T15:45:25;23.47;;;14.20;;
13309;SDS011;6723;48.256;16.402;2023-03-01T15:47:54;22.23;;;14.63;;
13309;SDS011;6723;48.256;16.402;2023-03-01T15:50:28;20.17;;;14.83;;
13309;SDS011;6723;48.256;16.402;2023-03-01T15:52:58;25.23;;;13.93;;
13309;SDS011;6723;48.256;16.402;2023-03-01T15:55:29;21.90;;;14.83;;
13309;SDS011;6723;48.256;16.402;2023-03-01T15:58:20;21.73;;;14.83;;
13309;SDS011;6723;48.256;16.402;2023-03-01T16:00:46;22.43;;;14.93;;
13309;SDS011;6723;48.256;16.402;2023-03-01T16:03:14;22.97;;;14.97;;
13309;SDS011;6723;48.256;16.402;2023-03-01T16:05:46;21.43;;;14.63;;
13309;SDS011;6723;48.256;16.402;2023-03-01T16:08:14;23.23;;;15.10;;
13309;SDS011;6723;48.256;16.402;2023-03-01T16:10:40;21.30;;;15.27;;
13309;SDS011;6723;48.256;16.402;2023-03-01T16:13:10;24.23;;;14.80;;
13309;SDS011;6723;48.256;16.402;2023-03-01T16:15:36;19.93;;;14.57;;
13309;SDS011;6723;48.256;16.402;2023-03-01T16:18:03;19.37;;;14.50;;
13309;SDS011;6723;48.256;16.402;2023-03-01T16:20:33;20.07;;;15.33;;
13309;SDS011;6723;48.256;16.402;2023-03-01T16:22:59;22.00;;;15.00;;
13309;SDS011;6723;48.256;16.402;2023-03-01T16:25:26;19.13;;;14.73;;
13309;SDS011;6723;48.256;16.402;2023-03-01T16:27:52;23.70;;;15.23;;
13309;SDS011;6723;48.256;16.402;2023-03-01T16:30:20;24.20;;;14.90;;
13309;SDS011;6723;48.256;16.402;2023-03-01T16:32:48;21.67;;;14.60;;
13309;SDS011;6723;48.256;16.402;2023-03-01T16:35:16;22.03;;;15.60;;
13309;SDS011;6723;48.256;16.402;2023-03-01T16:37:45;22.90;;;15.13;;
13309;SDS011;6723;48.256;16.402;2023-03-01T16:40:17;24.03;;;15.37;;
13309;SDS011;6723;48.256;16.402;2023-03-01T16:42:46;22.47;;;14.87;;
13309;SDS011;6723;48.256;16.402;2023-03-01T16:45:13;22.27;;;14.90;;